createdAt,value
2018-04-13T00:00:03.203Z,13.06
2018-04-13T00:01:03.140Z,13.06
2018-04-13T00:02:03.259Z,13.06
2018-04-13T00:03:03.128Z,13.06
2018-04-13T00:04:03.143Z,13.06
2018-04-13T00:05:03.194Z,13
2018-04-13T00:06:03.210Z,12.94
2018-04-13T00:07:03.169Z,13
2018-04-13T00:08:03.255Z,13
2018-04-13T00:09:03.153Z,13
2018-04-13T00:10:03.137Z,13
2018-04-13T00:11:03.117Z,13
2018-04-13T00:12:03.314Z,13.06
2018-04-13T00:13:03.139Z,13
2018-04-13T00:14:03.126Z,13
2018-04-13T00:15:03.134Z,13
2018-04-13T00:16:03.125Z,13
2018-04-13T00:17:03.148Z,13
2018-04-13T00:18:03.196Z,13
2018-04-13T00:19:03.123Z,13
2018-04-13T00:20:03.120Z,13
2018-04-13T00:21:03.104Z,12.94
2018-04-13T00:22:03.158Z,12.94
2018-04-13T00:23:03.126Z,12.94
2018-04-13T00:24:03.141Z,12.94
2018-04-13T00:25:03.139Z,12.94
2018-04-13T00:26:03.102Z,12.88
2018-04-13T00:27:03.154Z,12.94
2018-04-13T00:28:03.113Z,12.88
2018-04-13T00:29:03.099Z,12.88
2018-04-13T00:30:03.086Z,12.88
2018-04-13T00:31:03.119Z,12.81
2018-04-13T00:32:03.126Z,12.88
2018-04-13T00:33:03.090Z,12.81
2018-04-13T00:34:03.084Z,12.81
2018-04-13T00:35:03.094Z,12.75
2018-04-13T00:36:03.113Z,12.75
2018-04-13T00:37:03.121Z,12.69
2018-04-13T00:38:03.104Z,12.63
2018-04-13T00:39:03.080Z,12.63
2018-04-13T00:40:03.080Z,12.56
2018-04-13T00:41:03.133Z,12.63
2018-04-13T00:42:03.257Z,12.56
2018-04-13T00:43:03.086Z,12.5
2018-04-13T00:44:03.124Z,12.5
2018-04-13T00:45:03.094Z,12.44
2018-04-13T00:46:03.075Z,12.5
2018-04-13T00:47:03.203Z,12.44
2018-04-13T00:48:03.093Z,12.5
2018-04-13T00:49:03.140Z,12.44
2018-04-13T00:50:03.115Z,12.44
2018-04-13T00:51:03.070Z,12.44
2018-04-13T00:52:03.102Z,12.37
2018-04-13T00:53:03.071Z,12.31
2018-04-13T00:54:03.075Z,12.31
2018-04-13T00:55:03.098Z,12.31
2018-04-13T00:56:03.096Z,12.37
2018-04-13T00:57:03.168Z,12.31
2018-04-13T00:58:03.076Z,12.31
2018-04-13T00:59:03.114Z,12.31
2018-04-13T01:00:03.072Z,12.31
2018-04-13T01:01:03.067Z,12.37
2018-04-13T01:02:03.139Z,12.31
2018-04-13T01:03:03.051Z,12.37
2018-04-13T01:04:03.328Z,12.37
2018-04-13T01:05:03.040Z,12.31
2018-04-13T01:06:03.037Z,12.37
2018-04-13T01:07:03.051Z,12.31
2018-04-13T01:08:03.083Z,12.37
2018-04-13T01:09:03.063Z,12.31
2018-04-13T01:10:03.038Z,12.37
2018-04-13T01:11:03.033Z,12.37
2018-04-13T01:12:03.050Z,12.31
2018-04-13T01:13:03.056Z,12.37
2018-04-13T01:14:03.112Z,12.37
2018-04-13T01:15:03.137Z,12.37
2018-04-13T01:16:03.033Z,12.31
2018-04-13T01:17:03.067Z,12.25
2018-04-13T01:18:03.020Z,12.25
2018-04-13T01:19:03.288Z,12.25
2018-04-13T01:20:03.030Z,12.25
2018-04-13T01:21:03.080Z,12.19
2018-04-13T01:22:03.088Z,12.19
2018-04-13T01:23:03.040Z,12.25
2018-04-13T01:24:03.097Z,12.19
2018-04-13T01:25:03.046Z,12.19
2018-04-13T01:26:03.052Z,12.19
2018-04-13T01:27:03.045Z,12.19
2018-04-13T01:28:03.068Z,12.19
2018-04-13T01:29:02.989Z,12.19
2018-04-13T01:30:03.041Z,12.19
2018-04-13T01:31:03.015Z,12.19
2018-04-13T01:32:03.010Z,12.19
2018-04-13T01:33:03.025Z,12.13
2018-04-13T01:34:03.025Z,12.19
2018-04-13T01:35:03.033Z,12.13
2018-04-13T01:36:02.991Z,12.13
2018-04-13T01:37:03.132Z,12.13
2018-04-13T01:38:03.006Z,12.06
2018-04-13T01:39:03.049Z,12.06
2018-04-13T01:40:03.047Z,12
2018-04-13T01:41:02.995Z,11.94
2018-04-13T01:42:03.017Z,12
2018-04-13T01:43:02.994Z,11.94
2018-04-13T01:44:02.999Z,11.94
2018-04-13T01:45:03.034Z,11.94
2018-04-13T01:46:03.001Z,11.94
2018-04-13T01:47:03.039Z,11.94
2018-04-13T01:48:02.998Z,11.88
2018-04-13T01:49:03.004Z,11.88
2018-04-13T01:50:03.048Z,11.81
2018-04-13T01:51:03.018Z,11.75
2018-04-13T01:52:02.996Z,11.75
2018-04-13T01:53:02.987Z,11.69
2018-04-13T01:54:02.971Z,11.69
2018-04-13T01:55:03.049Z,11.63
2018-04-13T01:56:02.977Z,11.63
2018-04-13T01:57:02.963Z,11.63
2018-04-13T01:58:03.021Z,11.63
2018-04-13T01:59:03.028Z,11.63
2018-04-13T02:00:03.075Z,11.63
2018-04-13T02:01:02.975Z,11.63
2018-04-13T02:02:02.985Z,11.63
2018-04-13T02:03:03.051Z,11.63
2018-04-13T02:04:02.949Z,11.56
2018-04-13T02:05:03.077Z,11.56
2018-04-13T02:06:02.947Z,11.63
2018-04-13T02:07:02.959Z,11.56
2018-04-13T02:08:03.034Z,11.56
2018-04-13T02:09:02.966Z,11.56
2018-04-13T02:10:02.980Z,11.56
2018-04-13T02:11:02.990Z,11.56
2018-04-13T02:12:02.976Z,11.56
2018-04-13T02:13:02.939Z,11.56
2018-04-13T02:14:03.086Z,11.56
2018-04-13T02:15:02.954Z,11.56
2018-04-13T02:16:02.948Z,11.56
2018-04-13T02:17:02.959Z,11.56
2018-04-13T02:18:02.927Z,11.56
2018-04-13T02:19:02.933Z,11.56
2018-04-13T02:20:02.961Z,11.56
2018-04-13T02:21:02.938Z,11.56
2018-04-13T02:22:02.944Z,11.5
2018-04-13T02:23:02.935Z,11.5
2018-04-13T02:24:03.041Z,11.44
2018-04-13T02:25:03.078Z,11.44
2018-04-13T02:26:03.288Z,11.44
2018-04-13T02:27:02.936Z,11.38
2018-04-13T02:28:02.923Z,11.38
2018-04-13T02:29:02.975Z,11.38
2018-04-13T02:30:02.946Z,11.38
2018-04-13T02:31:02.944Z,11.38
2018-04-13T02:32:02.922Z,11.38
2018-04-13T02:33:02.954Z,11.38
2018-04-13T02:34:03.107Z,11.44
2018-04-13T02:35:02.947Z,11.44
2018-04-13T02:36:02.945Z,11.44
2018-04-13T02:37:02.952Z,11.44
2018-04-13T02:38:02.953Z,11.38
2018-04-13T02:39:02.944Z,11.38
2018-04-13T02:40:02.945Z,11.38
2018-04-13T02:41:02.947Z,11.38
2018-04-13T02:42:02.930Z,11.38
2018-04-13T02:43:02.915Z,11.31
2018-04-13T02:44:02.983Z,11.31
2018-04-13T02:45:02.922Z,11.25
2018-04-13T02:46:02.914Z,11.31
2018-04-13T02:47:02.882Z,11.31
2018-04-13T02:48:02.911Z,11.31
2018-04-13T02:49:02.924Z,11.31
2018-04-13T02:50:02.939Z,11.12
2018-04-13T02:51:02.878Z,11.19
2018-04-13T02:52:02.895Z,11.19
2018-04-13T02:53:02.890Z,11.12
2018-04-13T02:54:02.922Z,11.12
2018-04-13T02:55:02.899Z,11.12
2018-04-13T02:56:02.868Z,11.12
2018-04-13T02:57:02.915Z,11.12
2018-04-13T02:58:02.886Z,11.06
2018-04-13T02:59:03.122Z,10.94
2018-04-13T03:00:02.890Z,10.94
2018-04-13T03:01:02.885Z,10.88
2018-04-13T03:02:02.875Z,10.88
2018-04-13T03:03:02.881Z,10.81
2018-04-13T03:04:02.890Z,10.75
2018-04-13T03:05:02.890Z,10.81
2018-04-13T03:06:02.867Z,10.75
2018-04-13T03:07:02.844Z,10.75
2018-04-13T03:08:02.865Z,10.81
2018-04-13T03:09:02.909Z,10.81
2018-04-13T03:10:02.868Z,10.75
2018-04-13T03:11:02.860Z,10.75
2018-04-13T03:12:02.878Z,10.81
2018-04-13T03:13:02.883Z,10.81
2018-04-13T03:14:02.902Z,10.81
2018-04-13T03:15:02.844Z,10.88
2018-04-13T03:16:02.836Z,10.81
2018-04-13T03:17:02.857Z,10.81
2018-04-13T03:18:02.850Z,10.81
2018-04-13T03:19:02.884Z,10.81
2018-04-13T03:20:02.849Z,10.81
2018-04-13T03:21:02.835Z,10.81
2018-04-13T03:22:02.833Z,10.88
2018-04-13T03:23:02.829Z,10.81
2018-04-13T03:24:02.857Z,10.88
2018-04-13T03:25:02.867Z,10.81
2018-04-13T03:26:02.921Z,10.81
2018-04-13T03:27:02.862Z,10.81
2018-04-13T03:28:02.837Z,10.81
2018-04-13T03:29:02.860Z,10.81
2018-04-13T03:30:02.878Z,10.81
2018-04-13T03:31:02.863Z,10.81
2018-04-13T03:32:02.931Z,10.81
2018-04-13T03:33:02.846Z,10.75
2018-04-13T03:34:02.999Z,10.75
2018-04-13T03:35:02.852Z,10.81
2018-04-13T03:36:02.861Z,10.81
2018-04-13T03:37:02.832Z,10.75
2018-04-13T03:38:02.848Z,10.75
2018-04-13T03:39:02.951Z,10.75
2018-04-13T03:40:02.821Z,10.75
2018-04-13T03:41:02.814Z,10.75
2018-04-13T03:42:02.828Z,10.75
2018-04-13T03:43:02.877Z,10.81
2018-04-13T03:44:02.816Z,10.75
2018-04-13T03:45:02.812Z,10.75
2018-04-13T03:46:02.803Z,10.75
2018-04-13T03:47:02.881Z,10.69
2018-04-13T03:48:02.794Z,10.75
2018-04-13T03:49:02.816Z,10.75
2018-04-13T03:50:02.865Z,10.69
2018-04-13T03:51:02.804Z,10.63
2018-04-13T03:52:02.794Z,10.69
2018-04-13T03:53:02.847Z,10.63
2018-04-13T03:54:02.830Z,10.63
2018-04-13T03:55:02.812Z,10.63
2018-04-13T03:56:02.787Z,10.56
2018-04-13T03:57:02.848Z,10.56
2018-04-13T03:58:02.800Z,10.56
2018-04-13T03:59:02.896Z,10.56
2018-04-13T04:00:02.821Z,10.56
2018-04-13T04:01:02.772Z,10.5
2018-04-13T04:02:02.965Z,10.44
2018-04-13T04:03:02.778Z,10.38
2018-04-13T04:04:02.897Z,10.44
2018-04-13T04:05:02.796Z,10.38
2018-04-13T04:06:02.793Z,10.38
2018-04-13T04:07:02.748Z,10.44
2018-04-13T04:08:02.777Z,10.38
2018-04-13T04:09:02.817Z,10.44
2018-04-13T04:10:02.809Z,10.44
2018-04-13T04:11:03.210Z,10.44
2018-04-13T04:12:02.777Z,10.44
2018-04-13T04:13:02.778Z,10.44
2018-04-13T04:14:02.739Z,10.44
2018-04-13T04:15:02.779Z,10.44
2018-04-13T04:16:02.824Z,10.5
2018-04-13T04:17:02.808Z,10.5
2018-04-13T04:18:02.875Z,10.5
2018-04-13T04:19:02.748Z,10.5
2018-04-13T04:20:02.757Z,10.44
2018-04-13T04:21:02.893Z,10.5
2018-04-13T04:22:02.885Z,10.44
2018-04-13T04:23:02.753Z,10.5
2018-04-13T04:24:02.776Z,10.44
2018-04-13T04:25:02.829Z,10.5
2018-04-13T04:26:02.810Z,10.5
2018-04-13T04:27:02.767Z,10.44
2018-04-13T04:28:03.093Z,10.5
2018-04-13T04:29:02.737Z,10.44
2018-04-13T04:30:02.798Z,10.5
2018-04-13T04:31:02.728Z,10.5
2018-04-13T04:32:02.750Z,10.5
2018-04-13T04:33:02.750Z,10.5
2018-04-13T04:34:02.759Z,10.5
2018-04-13T04:35:02.761Z,10.5
2018-04-13T04:36:02.728Z,10.5
2018-04-13T04:37:02.741Z,10.5
2018-04-13T04:38:02.762Z,10.5
2018-04-13T04:39:02.710Z,10.5
2018-04-13T04:40:02.744Z,10.56
2018-04-13T04:41:02.727Z,10.56
2018-04-13T04:42:02.712Z,10.56
2018-04-13T04:43:02.740Z,10.56
2018-04-13T04:44:02.757Z,10.63
2018-04-13T04:45:02.829Z,10.56
2018-04-13T04:46:02.702Z,10.56
2018-04-13T04:47:02.705Z,10.63
2018-04-13T04:48:02.751Z,10.63
2018-04-13T04:49:02.701Z,10.63
2018-04-13T04:50:02.800Z,10.63
2018-04-13T04:51:02.695Z,10.63
2018-04-13T04:52:02.684Z,10.63
2018-04-13T04:53:02.741Z,10.63
2018-04-13T04:54:02.692Z,10.63
2018-04-13T04:55:02.702Z,10.56
2018-04-13T04:56:02.718Z,10.56
2018-04-13T04:57:02.693Z,10.56
2018-04-13T04:58:02.780Z,10.56
2018-04-13T04:59:02.683Z,10.56
2018-04-13T05:00:02.820Z,10.56
2018-04-13T05:01:02.683Z,10.56
2018-04-13T05:02:02.696Z,10.56
2018-04-13T05:03:02.728Z,10.63
2018-04-13T05:04:02.693Z,10.63
2018-04-13T05:05:02.717Z,10.63
2018-04-13T05:06:02.687Z,10.63
2018-04-13T05:07:02.719Z,10.63
2018-04-13T05:08:02.847Z,10.69
2018-04-13T05:09:02.694Z,10.63
2018-04-13T05:10:02.791Z,10.63
2018-04-13T05:11:02.673Z,10.63
2018-04-13T05:12:03.065Z,10.63
2018-04-13T05:13:02.689Z,10.63
2018-04-13T05:14:02.671Z,10.63
2018-04-13T05:15:02.691Z,10.63
2018-04-13T05:16:02.785Z,10.63
2018-04-13T05:17:02.678Z,10.63
2018-04-13T05:18:02.662Z,10.69
2018-04-13T05:19:02.666Z,10.63
2018-04-13T05:20:02.695Z,10.63
2018-04-13T05:21:02.762Z,10.63
2018-04-13T05:22:02.695Z,10.56
2018-04-13T05:23:02.664Z,10.56
2018-04-13T05:24:02.805Z,10.56
2018-04-13T05:25:02.752Z,10.56
2018-04-13T05:26:02.662Z,10.56
2018-04-13T05:27:02.654Z,10.56
2018-04-13T05:28:02.661Z,10.56
2018-04-13T05:29:02.678Z,10.63
2018-04-13T05:30:02.665Z,10.56
2018-04-13T05:31:02.749Z,10.63
2018-04-13T05:32:02.709Z,10.63
2018-04-13T05:33:02.639Z,10.63
2018-04-13T05:34:02.654Z,10.63
2018-04-13T05:35:02.657Z,10.63
2018-04-13T05:36:02.630Z,10.63
2018-04-13T05:37:02.695Z,10.63
2018-04-13T05:38:02.620Z,10.63
2018-04-13T05:39:02.624Z,10.69
2018-04-13T05:40:02.720Z,10.63
2018-04-13T05:41:02.751Z,10.63
2018-04-13T05:42:02.731Z,10.56
2018-04-13T05:43:02.648Z,10.56
2018-04-13T05:44:02.617Z,10.56
2018-04-13T05:45:02.672Z,10.56
2018-04-13T05:46:02.985Z,10.63
2018-04-13T05:47:02.620Z,10.56
2018-04-13T05:48:02.659Z,10.63
2018-04-13T05:49:02.612Z,10.63
2018-04-13T05:50:02.609Z,10.63
2018-04-13T05:51:02.629Z,10.63
2018-04-13T05:52:02.620Z,10.63
2018-04-13T05:53:02.637Z,10.63
2018-04-13T05:54:02.605Z,10.63
2018-04-13T05:55:02.602Z,10.69
2018-04-13T05:56:02.590Z,10.69
2018-04-13T05:57:02.628Z,10.69
2018-04-13T05:58:02.812Z,10.69
2018-04-13T05:59:02.595Z,10.69
2018-04-13T06:00:02.617Z,10.69
2018-04-13T06:01:02.599Z,10.69
2018-04-13T06:02:02.602Z,10.69
2018-04-13T06:03:02.603Z,10.69
2018-04-13T06:04:02.635Z,10.69
2018-04-13T06:05:02.719Z,10.69
2018-04-13T06:06:02.961Z,10.69
2018-04-13T06:07:02.576Z,10.75
2018-04-13T06:08:02.592Z,10.75
2018-04-13T06:09:02.594Z,10.75
2018-04-13T06:10:02.711Z,10.81
2018-04-13T06:11:02.588Z,10.81
2018-04-13T06:12:02.589Z,10.81
2018-04-13T06:13:02.620Z,10.88
2018-04-13T06:14:02.572Z,10.88
2018-04-13T06:15:02.569Z,10.88
2018-04-13T06:16:02.569Z,10.88
2018-04-13T06:17:02.574Z,10.94
2018-04-13T06:18:02.608Z,10.94
2018-04-13T06:19:02.700Z,11
2018-04-13T06:20:02.615Z,10.94
2018-04-13T06:21:02.589Z,11
2018-04-13T06:22:02.569Z,11
2018-04-13T06:23:02.553Z,11
2018-04-13T06:24:02.553Z,11.06
2018-04-13T06:25:02.639Z,11.06
2018-04-13T06:26:02.580Z,11.06
2018-04-13T06:27:02.562Z,11.06
2018-04-13T06:28:02.902Z,11.06
2018-04-13T06:29:02.595Z,11.06
2018-04-13T06:30:02.562Z,11.06
2018-04-13T06:31:02.539Z,11.12
2018-04-13T06:32:02.556Z,11.06
2018-04-13T06:33:02.584Z,11.12
2018-04-13T06:34:02.566Z,11.12
2018-04-13T06:35:02.614Z,11.12
2018-04-13T06:36:02.561Z,11.19
2018-04-13T06:37:02.566Z,11.12
2018-04-13T06:38:02.568Z,11.19
2018-04-13T06:39:02.559Z,11.19
2018-04-13T06:40:02.566Z,11.19
2018-04-13T06:41:02.535Z,11.19
2018-04-13T06:42:02.654Z,11.19
2018-04-13T06:43:02.622Z,11.25
2018-04-13T06:44:02.605Z,11.25
2018-04-13T06:45:02.557Z,11.25
2018-04-13T06:46:02.585Z,11.25
2018-04-13T06:47:02.558Z,11.25
2018-04-13T06:48:02.544Z,11.31
2018-04-13T06:49:02.541Z,11.25
2018-04-13T06:50:02.532Z,11.31
2018-04-13T06:51:02.549Z,11.31
2018-04-13T06:52:02.525Z,11.38
2018-04-13T06:53:02.533Z,11.31
2018-04-13T06:54:02.504Z,11.38
2018-04-13T06:55:02.512Z,11.38
2018-04-13T06:56:02.516Z,11.38
2018-04-13T06:57:02.533Z,11.38
2018-04-13T06:58:02.568Z,11.38
2018-04-13T06:59:02.523Z,11.38
2018-04-13T07:00:02.556Z,11.44
2018-04-13T07:01:02.631Z,11.38
2018-04-13T07:02:02.512Z,11.44
2018-04-13T07:03:02.565Z,11.44
2018-04-13T07:04:02.549Z,11.44
2018-04-13T07:05:02.551Z,11.44
2018-04-13T07:06:02.567Z,11.44
2018-04-13T07:07:02.542Z,11.5
2018-04-13T07:08:02.600Z,11.5
2018-04-13T07:09:02.511Z,11.5
2018-04-13T07:10:02.512Z,11.5
2018-04-13T07:11:02.536Z,11.56
2018-04-13T07:12:02.550Z,11.5
2018-04-13T07:13:02.510Z,11.5
2018-04-13T07:14:02.516Z,11.5
2018-04-13T07:15:02.515Z,11.56
2018-04-13T07:16:02.512Z,11.56
2018-04-13T07:17:02.532Z,11.56
2018-04-13T07:18:02.542Z,11.56
2018-04-13T07:19:02.578Z,11.63
2018-04-13T07:20:02.495Z,11.56
2018-04-13T07:21:02.523Z,11.56
2018-04-13T07:22:02.612Z,11.63
2018-04-13T07:23:02.545Z,11.56
2018-04-13T07:24:02.492Z,11.56
2018-04-13T07:25:02.928Z,11.56
2018-04-13T07:26:02.464Z,11.56
2018-04-13T07:27:02.512Z,11.63
2018-04-13T07:28:02.530Z,11.63
2018-04-13T07:29:02.484Z,11.56
2018-04-13T07:30:02.598Z,11.63
2018-04-13T07:31:02.495Z,11.63
2018-04-13T07:32:02.486Z,11.63
2018-04-13T07:33:02.510Z,11.69
2018-04-13T07:34:02.481Z,11.63
2018-04-13T07:35:02.485Z,11.63
2018-04-13T07:36:02.512Z,11.69
2018-04-13T07:37:02.483Z,11.63
2018-04-13T07:38:02.584Z,11.69
2018-04-13T07:39:02.591Z,11.69
2018-04-13T07:40:02.606Z,11.69
2018-04-13T07:41:02.475Z,11.69
2018-04-13T07:42:02.491Z,11.69
2018-04-13T07:43:02.467Z,11.75
2018-04-13T07:44:02.525Z,11.69
2018-04-13T07:45:03.330Z,11.75
2018-04-13T07:46:02.959Z,11.75
2018-04-13T07:47:02.609Z,11.75
2018-04-13T07:48:02.542Z,11.75
2018-04-13T07:49:02.450Z,11.75
2018-04-13T07:50:02.498Z,11.75
2018-04-13T07:51:02.484Z,11.75
2018-04-13T07:52:02.492Z,11.75
2018-04-13T07:53:02.451Z,11.75
2018-04-13T07:54:02.456Z,11.75
2018-04-13T07:55:02.442Z,11.81
2018-04-13T07:56:02.447Z,11.75
2018-04-13T07:57:02.463Z,11.81
2018-04-13T07:58:03.941Z,11.75
2018-04-13T07:59:02.548Z,11.81
2018-04-13T08:00:02.450Z,11.81
2018-04-13T08:01:02.956Z,11.75
2018-04-13T08:02:02.455Z,11.75
2018-04-13T08:03:02.430Z,11.75
2018-04-13T08:04:02.411Z,11.81
2018-04-13T08:05:03.531Z,11.75
2018-04-13T08:06:02.459Z,11.75
2018-04-13T08:07:02.431Z,11.75
2018-04-13T08:08:02.429Z,11.69
2018-04-13T08:09:02.740Z,11.75
2018-04-13T08:10:02.422Z,11.69
2018-04-13T08:11:02.413Z,11.75
2018-04-13T08:12:02.455Z,11.69
2018-04-13T08:13:04.138Z,11.69
2018-04-13T08:14:02.862Z,11.75
2018-04-13T08:15:02.550Z,11.69
2018-04-13T08:16:02.561Z,11.75
2018-04-13T08:17:02.435Z,11.69
2018-04-13T08:18:02.728Z,11.63
2018-04-13T08:19:02.393Z,11.69
2018-04-13T08:20:02.410Z,11.56
2018-04-13T08:21:02.394Z,11.56
2018-04-13T08:22:02.663Z,11.5
2018-04-13T08:23:02.394Z,11.56
2018-04-13T08:24:02.474Z,11.56
2018-04-13T08:25:02.483Z,11.56
2018-04-13T08:26:02.384Z,11.56
2018-04-13T08:27:02.442Z,11.5
2018-04-13T08:28:02.510Z,11.56
2018-04-13T08:29:02.385Z,11.5
2018-04-13T08:30:02.541Z,11.5
2018-04-13T08:31:02.378Z,11.44
2018-04-13T08:32:02.628Z,11.44
2018-04-13T08:33:02.386Z,11.5
2018-04-13T08:34:02.573Z,11.44
2018-04-13T08:35:02.579Z,11.44
2018-04-13T08:36:02.465Z,11.38
2018-04-13T08:37:03.991Z,11.38
2018-04-13T08:38:02.597Z,11.38
2018-04-13T08:39:02.420Z,11.38
2018-04-13T08:40:02.443Z,11.31
2018-04-13T08:41:02.472Z,11.31
2018-04-13T08:42:02.361Z,11.38
2018-04-13T08:43:02.464Z,11.38
2018-04-13T08:44:02.369Z,11.31
2018-04-13T08:45:02.374Z,11.31
2018-04-13T08:46:02.401Z,11.31
2018-04-13T08:47:02.383Z,11.38
2018-04-13T08:48:02.448Z,11.31
2018-04-13T08:49:04.242Z,11.31
2018-04-13T08:50:02.552Z,11.31
2018-04-13T08:51:02.434Z,11.31
2018-04-13T08:52:02.364Z,11.31
2018-04-13T08:53:02.418Z,11.31
2018-04-13T08:54:02.651Z,11.31
2018-04-13T08:55:02.356Z,11.31
2018-04-13T08:56:02.355Z,11.31
2018-04-13T08:57:02.343Z,11.25
2018-04-13T08:58:02.487Z,11.25
2018-04-13T08:59:02.354Z,11.25
2018-04-13T09:00:02.371Z,11.19
2018-04-13T09:01:02.853Z,11.19
2018-04-13T09:02:02.721Z,11.19
2018-04-13T09:03:02.357Z,11.19
2018-04-13T09:04:02.346Z,11.12
2018-04-13T09:05:02.343Z,11.12
2018-04-13T09:06:02.325Z,11.12
2018-04-13T09:07:02.368Z,11.12
2018-04-13T09:08:02.364Z,11.12
2018-04-13T09:09:02.307Z,11.12
2018-04-13T09:10:02.338Z,11.06
2018-04-13T09:11:02.359Z,11.06
2018-04-13T09:12:02.347Z,11.06
2018-04-13T09:13:02.690Z,11.06
2018-04-13T09:14:02.404Z,11.06
2018-04-13T09:15:02.318Z,11.06
2018-04-13T09:16:02.317Z,11.12
2018-04-13T09:17:02.360Z,11.12
2018-04-13T09:18:02.637Z,11.06
2018-04-13T09:19:02.312Z,11.06
2018-04-13T09:20:02.473Z,11.12
2018-04-13T09:21:02.317Z,11.06
2018-04-13T09:22:02.325Z,11.06
2018-04-13T09:23:02.320Z,11.06
2018-04-13T09:24:02.352Z,11.06
2018-04-13T09:25:02.353Z,11.06
2018-04-13T09:26:02.360Z,11
2018-04-13T09:27:02.351Z,11
2018-04-13T09:28:02.595Z,11
2018-04-13T09:29:02.283Z,10.94
2018-04-13T09:30:02.349Z,11
2018-04-13T09:31:02.282Z,10.94
2018-04-13T09:32:02.358Z,11
2018-04-13T09:33:02.363Z,10.94
2018-04-13T09:34:02.284Z,11
2018-04-13T09:35:02.292Z,10.94
2018-04-13T09:36:02.429Z,10.94
2018-04-13T09:37:02.316Z,10.94
2018-04-13T09:38:02.371Z,10.94
2018-04-13T09:39:02.270Z,10.88
2018-04-13T09:40:02.285Z,10.88
2018-04-13T09:41:02.315Z,10.81
2018-04-13T09:42:02.278Z,10.81
2018-04-13T09:43:02.375Z,10.81
2018-04-13T09:44:02.244Z,10.81
2018-04-13T09:45:02.260Z,10.81
2018-04-13T09:46:02.302Z,10.81
2018-04-13T09:47:02.463Z,10.81
2018-04-13T09:48:02.288Z,10.75
2018-04-13T09:49:02.276Z,10.81
2018-04-13T09:50:03.263Z,10.75
2018-04-13T09:51:02.404Z,10.81
2018-04-13T09:52:02.251Z,10.75
2018-04-13T09:53:02.277Z,10.75
2018-04-13T09:54:02.268Z,10.81
2018-04-13T09:55:02.242Z,10.75
2018-04-13T09:56:02.440Z,10.75
2018-04-13T09:57:02.253Z,10.75
2018-04-13T09:58:02.276Z,10.75
2018-04-13T09:59:02.272Z,10.75
2018-04-13T10:00:02.235Z,10.75
2018-04-13T10:01:02.254Z,10.81
2018-04-13T10:02:02.223Z,10.81
2018-04-13T10:03:02.225Z,10.81
2018-04-13T10:04:02.258Z,10.81
2018-04-13T10:05:02.214Z,10.81
2018-04-13T10:06:02.222Z,10.81
2018-04-13T10:07:02.218Z,10.75
2018-04-13T10:08:02.540Z,10.81
2018-04-13T10:09:02.225Z,10.81
2018-04-13T10:10:02.230Z,10.81
2018-04-13T10:11:02.224Z,10.81
2018-04-13T10:12:02.256Z,10.75
2018-04-13T10:13:02.233Z,10.81
2018-04-13T10:14:02.202Z,10.75
2018-04-13T10:15:02.212Z,10.75
2018-04-13T10:16:02.207Z,10.81
2018-04-13T10:17:02.222Z,10.81
2018-04-13T10:18:02.211Z,10.75
2018-04-13T10:19:02.204Z,10.75
2018-04-13T10:20:02.213Z,10.81
2018-04-13T10:21:02.202Z,10.75
2018-04-13T10:22:02.221Z,10.75
2018-04-13T10:23:02.211Z,10.75
2018-04-13T10:24:02.227Z,10.75
2018-04-13T10:25:02.300Z,10.75
2018-04-13T10:26:02.317Z,10.75
2018-04-13T10:27:02.260Z,10.75
2018-04-13T10:28:02.249Z,10.75
2018-04-13T10:29:02.299Z,10.75
2018-04-13T10:30:02.226Z,10.75
2018-04-13T10:31:02.182Z,10.75
2018-04-13T10:32:02.210Z,10.75
2018-04-13T10:33:02.192Z,10.75
2018-04-13T10:34:02.282Z,10.81
2018-04-13T10:35:02.211Z,10.81
2018-04-13T10:36:02.193Z,10.81
2018-04-13T10:37:02.221Z,10.81
2018-04-13T10:38:02.219Z,10.81
2018-04-13T10:39:02.203Z,10.81
2018-04-13T10:40:02.218Z,10.81
2018-04-13T10:41:02.185Z,10.81
2018-04-13T10:42:02.225Z,10.81
2018-04-13T10:43:02.177Z,10.81
2018-04-13T10:44:02.263Z,10.75
2018-04-13T10:45:02.249Z,10.75
2018-04-13T10:46:02.200Z,10.81
2018-04-13T10:47:02.182Z,10.75
2018-04-13T10:48:02.198Z,10.81
2018-04-13T10:49:02.246Z,10.75
2018-04-13T10:50:02.194Z,10.81
2018-04-13T10:51:02.208Z,10.88
2018-04-13T10:52:02.200Z,10.88
2018-04-13T10:53:02.184Z,10.88
2018-04-13T10:54:02.181Z,10.88
2018-04-13T10:55:02.254Z,10.88
2018-04-13T10:56:02.163Z,10.88
2018-04-13T10:57:02.466Z,10.94
2018-04-13T10:58:02.267Z,10.94
2018-04-13T10:59:02.226Z,10.88
2018-04-13T11:00:02.172Z,10.88
2018-04-13T11:01:02.182Z,10.88
2018-04-13T11:02:02.144Z,10.88
2018-04-13T11:03:02.186Z,10.81
2018-04-13T11:04:02.140Z,10.88
2018-04-13T11:05:02.175Z,10.81
2018-04-13T11:06:02.198Z,10.81
2018-04-13T11:07:02.151Z,10.81
2018-04-13T11:08:02.139Z,10.81
2018-04-13T11:09:02.149Z,10.81
2018-04-13T11:10:02.157Z,10.88
2018-04-13T11:11:02.187Z,10.81
2018-04-13T11:12:02.175Z,10.94
2018-04-13T11:13:02.157Z,10.88
2018-04-13T11:14:02.486Z,10.88
2018-04-13T11:15:02.144Z,10.81
2018-04-13T11:16:02.132Z,10.88
2018-04-13T11:17:02.118Z,10.81
2018-04-13T11:18:02.158Z,10.81
2018-04-13T11:19:02.162Z,10.81
2018-04-13T11:20:02.148Z,10.81
2018-04-13T11:21:02.117Z,10.81
2018-04-13T11:22:02.117Z,10.75
2018-04-13T11:23:02.108Z,10.81
2018-04-13T11:24:02.090Z,10.81
2018-04-13T11:25:02.140Z,10.75
2018-04-13T11:26:02.153Z,10.75
2018-04-13T11:27:02.401Z,10.75
2018-04-13T11:28:02.156Z,10.81
2018-04-13T11:29:02.238Z,10.81
2018-04-13T11:30:02.304Z,10.75
2018-04-13T11:31:02.143Z,10.75
2018-04-13T11:32:02.214Z,10.75
2018-04-13T11:33:02.100Z,10.69
2018-04-13T11:34:02.086Z,10.69
2018-04-13T11:35:02.106Z,10.69
2018-04-13T11:36:02.113Z,10.63
2018-04-13T11:37:02.201Z,10.63
2018-04-13T11:38:02.120Z,10.69
2018-04-13T11:39:02.116Z,10.69
2018-04-13T11:40:02.088Z,10.69
2018-04-13T11:41:02.103Z,10.63
2018-04-13T11:42:02.106Z,10.63
2018-04-13T11:43:02.078Z,10.63
2018-04-13T11:44:02.099Z,10.56
2018-04-13T11:45:02.061Z,10.63
2018-04-13T11:46:02.055Z,10.63
2018-04-13T11:47:02.189Z,10.63
2018-04-13T11:48:02.077Z,10.56
2018-04-13T11:49:02.155Z,10.63
2018-04-13T11:50:02.287Z,10.56
2018-04-13T11:51:02.054Z,10.56
2018-04-13T11:52:02.128Z,10.56
2018-04-13T11:53:02.054Z,10.56
2018-04-13T11:54:02.087Z,10.56
2018-04-13T11:55:02.123Z,10.56
2018-04-13T11:56:02.091Z,10.63
2018-04-13T11:57:02.068Z,10.63
2018-04-13T11:58:02.052Z,10.56
2018-04-13T11:59:02.120Z,10.56
2018-04-13T12:00:02.142Z,10.5
2018-04-13T12:01:02.068Z,10.56
2018-04-13T12:02:02.082Z,10.5
2018-04-13T12:03:02.045Z,10.56
2018-04-13T12:04:02.107Z,10.56
2018-04-13T12:05:02.068Z,10.5
2018-04-13T12:06:02.091Z,10.56
2018-04-13T12:07:02.113Z,10.44
2018-04-13T12:08:02.056Z,10.5
2018-04-13T12:09:02.051Z,10.5
2018-04-13T12:10:02.022Z,10.56
2018-04-13T12:11:02.035Z,10.56
2018-04-13T12:12:02.026Z,10.5
2018-04-13T12:13:02.043Z,10.56
2018-04-13T12:14:02.023Z,10.5
2018-04-13T12:15:02.065Z,10.56
2018-04-13T12:16:02.070Z,10.56
2018-04-13T12:17:02.039Z,10.56
2018-04-13T12:18:02.055Z,10.56
2018-04-13T12:19:02.169Z,10.56
2018-04-13T12:20:02.027Z,10.56
2018-04-13T12:21:02.015Z,10.56
2018-04-13T12:22:02.007Z,10.56
2018-04-13T12:23:02.045Z,10.56
2018-04-13T12:24:02.025Z,10.56
2018-04-13T12:25:02.127Z,10.56
2018-04-13T12:26:02.026Z,10.56
2018-04-13T12:27:02.021Z,10.56
2018-04-13T12:28:02.021Z,10.56
2018-04-13T12:29:02.061Z,10.56
2018-04-13T12:30:02.055Z,10.63
2018-04-13T12:31:01.995Z,10.56
2018-04-13T12:32:02.132Z,10.56
2018-04-13T12:33:02.078Z,10.56
2018-04-13T12:34:02.033Z,10.63
2018-04-13T12:35:02.149Z,10.63
2018-04-13T12:36:02.064Z,10.63
2018-04-13T12:37:02.046Z,10.69
2018-04-13T12:38:02.043Z,10.63
2018-04-13T12:39:02.039Z,10.63
2018-04-13T12:40:01.959Z,10.69
2018-04-13T12:41:03.594Z,10.63
2018-04-13T12:42:02.075Z,10.63
2018-04-13T12:43:02.327Z,10.63
2018-04-13T12:44:02.027Z,10.69
2018-04-13T12:45:02.010Z,10.69
2018-04-13T12:46:01.975Z,10.69
2018-04-13T12:47:02.020Z,10.69
2018-04-13T12:48:01.959Z,10.63
2018-04-13T12:49:02.614Z,10.69
2018-04-13T12:50:04.042Z,10.69
2018-04-13T12:51:02.016Z,10.69
2018-04-13T12:52:02.613Z,10.63
2018-04-13T12:53:02.291Z,10.69
2018-04-13T12:54:02.377Z,10.69
2018-04-13T12:55:05.880Z,10.69
2018-04-13T12:56:02.510Z,10.69